EXS721 EGPH-LCLK
Flight info
| Callsign | EXS721 |
|---|---|
| Flight time | N/A |
| Altitude | 25000 |
| Route | TLA Y96 OTBUN/N0442F330 DCT SURAT DCT PETIL DCT GARKA DCT TUSKA DCT BOLBO/N0447F350 DCT OMELO DCT EVIKU DCT NAVTI DCT BEGLA DCT SVR DCT BABIT DCT RIGMU DCT NEVAK DCT GINAM DCT IBISI DCT SIN DCT RUGAS UN128 FSK DCT GIKAS DCT MES UL609 RDS UM601 EVENO DCT DASNI M601 BONEK |
| Aircraft | B738/M-SDE2E3FGHIRWXY/LB1 |
Departure
| Time | 2026-04-21 15:37 |
|---|---|
| Airport | Edinburgh Airport (EGPH) |
Arrival
| Time | N/A |
|---|---|
| Airport | Larnaca International Airport (LCLK) |
| Time | Latitude | Longitude | Altitude | Speed | Heading |
|---|---|---|---|---|---|
| 2026-04-21 15:08 | 55.94572 | -3.36624 | 115 ft | 0 kts | 90° |
| 2026-04-21 15:24 | 55.94570 | -3.36665 | 115 ft | 4 kts | 83° |
| 2026-04-21 15:24 | 55.94571 | -3.36707 | 113 ft | 1 kts | 106° |
| 2026-04-21 15:24 | 55.94580 | -3.36732 | 112 ft | 2 kts | 151° |
| 2026-04-21 15:25 | 55.94584 | -3.36742 | 112 ft | 4 kts | 211° |
| 2026-04-21 15:25 | 55.94608 | -3.36734 | 115 ft | 4 kts | 179° |
| 2026-04-21 15:25 | 55.94635 | -3.36734 | 114 ft | 4 kts | 179° |
| 2026-04-21 15:25 | 55.94662 | -3.36735 | 112 ft | 4 kts | 179° |
| 2026-04-21 15:26 | 55.94689 | -3.36736 | 111 ft | 4 kts | 179° |
| 2026-04-21 15:26 | 55.94715 | -3.36735 | 113 ft | 4 kts | 175° |
| 2026-04-21 15:26 | 55.94742 | -3.36742 | 115 ft | 4 kts | 163° |
| 2026-04-21 15:26 | 55.94767 | -3.36758 | 112 ft | 4 kts | 154° |
| 2026-04-21 15:27 | 55.94785 | -3.36776 | 113 ft | 2 kts | 166° |
| 2026-04-21 15:27 | 55.94809 | -3.36779 | 113 ft | 4 kts | 184° |
| 2026-04-21 15:27 | 55.94836 | -3.36779 | 113 ft | 4 kts | 179° |
| 2026-04-21 15:27 | 55.94858 | -3.36780 | 114 ft | 4 kts | 171° |
| 2026-04-21 15:28 | 55.94870 | -3.36785 | 114 ft | 0 kts | 163° |
| 2026-04-21 15:29 | 55.94866 | -3.36791 | 114 ft | 1 kts | 223° |
| 2026-04-21 15:30 | 55.94870 | -3.36802 | 111 ft | 1 kts | 315° |
| 2026-04-21 15:30 | 55.94900 | -3.36818 | 112 ft | 8 kts | 342° |
| 2026-04-21 15:30 | 55.94917 | -3.36917 | 115 ft | 11 kts | 248° |
| 2026-04-21 15:30 | 55.94889 | -3.37005 | 112 ft | 13 kts | 238° |
| 2026-04-21 15:31 | 55.94831 | -3.37175 | 112 ft | 19 kts | 238° |
| 2026-04-21 15:31 | 55.94757 | -3.37393 | 113 ft | 21 kts | 239° |
| 2026-04-21 15:31 | 55.94682 | -3.37616 | 113 ft | 21 kts | 239° |
| 2026-04-21 15:31 | 55.94608 | -3.37833 | 115 ft | 20 kts | 239° |
| 2026-04-21 15:32 | 55.94537 | -3.38043 | 115 ft | 19 kts | 239° |
| 2026-04-21 15:32 | 55.94468 | -3.38247 | 114 ft | 19 kts | 238° |
| 2026-04-21 15:32 | 55.94400 | -3.38443 | 115 ft | 18 kts | 238° |
| 2026-04-21 15:32 | 55.94336 | -3.38631 | 114 ft | 13 kts | 239° |
| 2026-04-21 15:33 | 55.94323 | -3.38672 | 114 ft | 0 kts | 240° |
| 2026-04-21 15:33 | 55.94321 | -3.38678 | 113 ft | 2 kts | 240° |
| 2026-04-21 15:34 | 55.94306 | -3.38725 | 114 ft | 7 kts | 240° |
| 2026-04-21 15:34 | 55.94280 | -3.38804 | 114 ft | 2 kts | 242° |
| 2026-04-21 15:34 | 55.94278 | -3.38829 | 115 ft | 4 kts | 273° |
| 2026-04-21 15:34 | 55.94301 | -3.38877 | 112 ft | 2 kts | 328° |
| 2026-04-21 15:35 | 55.94315 | -3.38893 | 114 ft | 3 kts | 328° |
| 2026-04-21 15:35 | 55.94324 | -3.38903 | 115 ft | 1 kts | 328° |
| 2026-04-21 15:35 | 55.94345 | -3.38927 | 113 ft | 7 kts | 328° |
| 2026-04-21 15:35 | 55.94409 | -3.38970 | 113 ft | 10 kts | 14° |
| 2026-04-21 15:36 | 55.94426 | -3.38941 | 110 ft | 0 kts | 57° |
| 2026-04-21 15:36 | 55.94433 | -3.38921 | 113 ft | 11 kts | 57° |
| 2026-04-21 15:36 | 55.94595 | -3.38442 | 111 ft | 79 kts | 58° |
| 2026-04-21 15:37 | 55.94988 | -3.37289 | 110 ft | 137 kts | 58° |
| 2026-04-21 15:37 | 55.95521 | -3.35677 | 467 ft | 158 kts | 60° |
| 2026-04-21 15:37 | 55.96148 | -3.34012 | 1225 ft | 158 kts | 46° |
| 2026-04-21 15:37 | 55.96969 | -3.32773 | 2095 ft | 157 kts | 43° |
| 2026-04-21 15:38 | 55.97850 | -3.31371 | 2399 ft | 184 kts | 45° |
| 2026-04-21 15:38 | 55.98848 | -3.29747 | 2635 ft | 204 kts | 45° |
| 2026-04-21 15:38 | 55.99935 | -3.27985 | 2992 ft | 217 kts | 45° |
| 2026-04-21 15:38 | 56.01101 | -3.26097 | 3262 ft | 235 kts | 45° |
| 2026-04-21 15:39 | 56.02337 | -3.24097 | 3802 ft | 246 kts | 45° |
| 2026-04-21 15:39 | 56.03602 | -3.22053 | 4628 ft | 244 kts | 45° |
| 2026-04-21 15:39 | 56.04759 | -3.19824 | 5332 ft | 246 kts | 63° |
| 2026-04-21 15:39 | 56.05303 | -3.16941 | 6029 ft | 247 kts | 84° |
| 2026-04-21 15:40 | 56.05298 | -3.13867 | 6750 ft | 250 kts | 94° |
| 2026-04-21 15:40 | 56.04953 | -3.10793 | 7349 ft | 257 kts | 114° |
| 2026-04-21 15:40 | 56.03921 | -3.08192 | 8081 ft | 260 kts | 133° |
| 2026-04-21 15:40 | 56.02527 | -3.06082 | 8744 ft | 265 kts | 139° |
| 2026-04-21 15:41 | 56.01053 | -3.04068 | 9426 ft | 268 kts | 140° |
| 2026-04-21 15:41 | 55.99569 | -3.02033 | 10146 ft | 270 kts | 139° |
| 2026-04-21 15:41 | 55.98068 | -2.99985 | 10782 ft | 275 kts | 143° |
| 2026-04-21 15:41 | 55.96215 | -2.98711 | 10957 ft | 302 kts | 169° |
| 2026-04-21 15:42 | 55.94045 | -2.99036 | 11115 ft | 330 kts | 196° |
| 2026-04-21 15:42 | 55.91890 | -3.00773 | 11353 ft | 350 kts | 205° |
| 2026-04-21 15:42 | 55.89723 | -3.02904 | 11784 ft | 359 kts | 206° |
| 2026-04-21 15:42 | 55.87525 | -3.05032 | 12460 ft | 360 kts | 205° |
| 2026-04-21 15:43 | 55.85284 | -3.07069 | 13094 ft | 363 kts | 203° |
| 2026-04-21 15:43 | 55.82995 | -3.09026 | 13727 ft | 367 kts | 202° |
| 2026-04-21 15:43 | 55.80665 | -3.10940 | 14345 ft | 370 kts | 201° |
| 2026-04-21 15:43 | 55.78308 | -3.12835 | 14913 ft | 374 kts | 201° |
| 2026-04-21 15:44 | 55.75930 | -3.14729 | 15496 ft | 376 kts | 201° |
| 2026-04-21 15:44 | 55.73562 | -3.16610 | 16041 ft | 379 kts | 201° |
| 2026-04-21 15:44 | 55.71147 | -3.18526 | 16583 ft | 382 kts | 201° |
| 2026-04-21 15:44 | 55.68679 | -3.20483 | 17129 ft | 385 kts | 201° |
| 2026-04-21 15:45 | 55.66257 | -3.22402 | 17666 ft | 388 kts | 201° |
| 2026-04-21 15:45 | 55.63780 | -3.24363 | 18236 ft | 391 kts | 201° |
| 2026-04-21 15:45 | 55.61283 | -3.26336 | 18761 ft | 395 kts | 201° |
| 2026-04-21 15:45 | 55.58757 | -3.28279 | 19223 ft | 397 kts | 197° |
| 2026-04-21 15:46 | 55.56072 | -3.29126 | 19690 ft | 391 kts | 175° |
| 2026-04-21 15:46 | 55.53428 | -3.28274 | 20207 ft | 386 kts | 156° |
| 2026-04-21 15:46 | 55.51100 | -3.26000 | 20648 ft | 383 kts | 139° |
| 2026-04-21 15:46 | 55.49291 | -3.22577 | 21089 ft | 382 kts | 122° |
| 2026-04-21 15:47 | 55.48100 | -3.18414 | 21525 ft | 383 kts | 106° |
| 2026-04-21 15:47 | 55.47541 | -3.13812 | 21998 ft | 384 kts | 100° |
| 2026-04-21 15:47 | 55.47088 | -3.09158 | 22406 ft | 388 kts | 100° |
| 2026-04-21 15:47 | 55.46612 | -3.04457 | 22769 ft | 392 kts | 101° |
| 2026-04-21 15:48 | 55.45948 | -2.99813 | 23295 ft | 391 kts | 109° |
| 2026-04-21 15:48 | 55.44867 | -2.95390 | 23634 ft | 396 kts | 118° |
| 2026-04-21 15:48 | 55.43506 | -2.91158 | 24081 ft | 397 kts | 119° |
| 2026-04-21 15:48 | 55.42131 | -2.86938 | 24495 ft | 398 kts | 119° |
| 2026-04-21 15:49 | 55.40760 | -2.82698 | 24876 ft | 399 kts | 119° |
| 2026-04-21 15:49 | 55.39399 | -2.78444 | 25301 ft | 398 kts | 118° |
| 2026-04-21 15:49 | 55.38041 | -2.74175 | 25635 ft | 402 kts | 118° |
| 2026-04-21 15:49 | 55.36670 | -2.69871 | 25907 ft | 405 kts | 119° |
| 2026-04-21 15:50 | 55.35285 | -2.65539 | 26156 ft | 409 kts | 119° |
| 2026-04-21 15:50 | 55.33880 | -2.61175 | 26451 ft | 412 kts | 119° |
| 2026-04-21 15:50 | 55.32463 | -2.56784 | 26780 ft | 413 kts | 119° |
| 2026-04-21 15:50 | 55.31040 | -2.52381 | 26996 ft | 418 kts | 119° |
| 2026-04-21 15:51 | 55.29672 | -2.47862 | 27235 ft | 421 kts | 111° |
| 2026-04-21 15:51 | 55.28914 | -2.42911 | 27533 ft | 422 kts | 97° |
| 2026-04-21 15:51 | 55.28810 | -2.37748 | 27777 ft | 426 kts | 85° |
| 2026-04-21 15:51 | 55.29355 | -2.32623 | 28004 ft | 430 kts | 77° |
| 2026-04-21 15:52 | 55.30050 | -2.27504 | 28256 ft | 433 kts | 77° |
| 2026-04-21 15:52 | 55.30765 | -2.22360 | 28490 ft | 435 kts | 77° |
| 2026-04-21 15:52 | 55.31478 | -2.17193 | 28665 ft | 440 kts | 77° |
| 2026-04-21 15:52 | 55.32189 | -2.11955 | 28902 ft | 442 kts | 77° |
| 2026-04-21 15:53 | 55.32890 | -2.06701 | 29235 ft | 442 kts | 77° |
| 2026-04-21 15:53 | 55.33579 | -2.01455 | 29619 ft | 440 kts | 77° |
| 2026-04-21 15:53 | 55.34259 | -1.96212 | 29993 ft | 440 kts | 78° |
| 2026-04-21 15:53 | 55.34934 | -1.90967 | 30292 ft | 441 kts | 78° |
| 2026-04-21 15:54 | 55.35607 | -1.85714 | 30618 ft | 440 kts | 78° |
| 2026-04-21 15:54 | 55.36277 | -1.80462 | 30913 ft | 440 kts | 78° |
| 2026-04-21 15:54 | 55.36943 | -1.75219 | 31198 ft | 439 kts | 78° |
| 2026-04-21 15:54 | 55.37606 | -1.69987 | 31475 ft | 438 kts | 78° |
| 2026-04-21 15:55 | 55.38265 | -1.64756 | 31756 ft | 438 kts | 77° |
| 2026-04-21 15:55 | 55.38921 | -1.59541 | 32036 ft | 437 kts | 77° |
| 2026-04-21 15:55 | 55.39575 | -1.54318 | 32278 ft | 437 kts | 77° |
| 2026-04-21 15:55 | 55.40227 | -1.49095 | 32517 ft | 437 kts | 77° |
| 2026-04-21 15:56 | 55.40876 | -1.43878 | 32754 ft | 437 kts | 77° |
| 2026-04-21 15:56 | 55.41523 | -1.38653 | 32980 ft | 437 kts | 77° |
| 2026-04-21 15:56 | 55.42168 | -1.33429 | 33212 ft | 437 kts | 77° |
| 2026-04-21 15:56 | 55.42809 | -1.28209 | 33466 ft | 436 kts | 77° |
| 2026-04-21 15:57 | 55.44090 | -1.17740 | 33514 ft | 438 kts | 77° |
| 2026-04-21 15:57 | 55.45363 | -1.07249 | 33509 ft | 437 kts | 77° |
| 2026-04-21 15:58 | 55.46621 | -0.96799 | 33504 ft | 435 kts | 78° |
| 2026-04-21 15:58 | 55.47867 | -0.86366 | 33509 ft | 434 kts | 78° |
| 2026-04-21 15:59 | 55.49101 | -0.75957 | 33504 ft | 433 kts | 78° |
| 2026-04-21 15:59 | 55.50325 | -0.65550 | 33511 ft | 433 kts | 78° |
| 2026-04-21 16:00 | 55.51539 | -0.55147 | 33506 ft | 433 kts | 78° |
| 2026-04-21 16:00 | 55.52745 | -0.44732 | 33505 ft | 433 kts | 78° |
| 2026-04-21 16:01 | 55.53942 | -0.34304 | 33507 ft | 434 kts | 78° |
| 2026-04-21 16:01 | 55.55132 | -0.23861 | 33503 ft | 434 kts | 78° |
| 2026-04-21 16:02 | 55.56315 | -0.13391 | 33506 ft | 435 kts | 79° |
| 2026-04-21 16:02 | 55.57482 | -0.02988 | 33503 ft | 435 kts | 79° |
| 2026-04-21 16:03 | 55.58648 | 0.07505 | 33500 ft | 435 kts | 79° |
| 2026-04-21 16:03 | 55.59814 | 0.18074 | 33497 ft | 435 kts | 79° |
| 2026-04-21 16:04 | 55.60954 | 0.28502 | 33490 ft | 435 kts | 79° |
| 2026-04-21 16:04 | 55.62092 | 0.38996 | 33499 ft | 434 kts | 79° |
| 2026-04-21 16:05 | 55.63219 | 0.49482 | 33502 ft | 434 kts | 79° |
| 2026-04-21 16:05 | 55.64345 | 0.60045 | 33496 ft | 433 kts | 80° |
| 2026-04-21 16:06 | 55.65445 | 0.70455 | 33500 ft | 433 kts | 80° |
| 2026-04-21 16:06 | 55.66542 | 0.80924 | 33495 ft | 432 kts | 80° |
| 2026-04-21 16:07 | 55.67628 | 0.91382 | 33504 ft | 431 kts | 80° |
| 2026-04-21 16:07 | 55.68704 | 1.01834 | 33496 ft | 431 kts | 80° |
| 2026-04-21 16:08 | 55.70299 | 1.17494 | 33492 ft | 430 kts | 80° |
| 2026-04-21 16:09 | 55.71350 | 1.27929 | 33501 ft | 429 kts | 81° |
| 2026-04-21 16:09 | 55.72390 | 1.38358 | 33491 ft | 429 kts | 81° |
| 2026-04-21 16:10 | 55.73421 | 1.48777 | 33498 ft | 429 kts | 81° |
| 2026-04-21 16:10 | 55.74442 | 1.59200 | 33493 ft | 428 kts | 81° |
| 2026-04-21 16:11 | 55.75454 | 1.69615 | 33497 ft | 428 kts | 81° |
| 2026-04-21 16:11 | 55.76456 | 1.80033 | 33489 ft | 428 kts | 81° |
| 2026-04-21 16:12 | 55.77282 | 1.88698 | 33493 ft | 428 kts | 81° |
| 2026-04-21 16:12 | 55.78434 | 2.00884 | 33485 ft | 428 kts | 81° |
| 2026-04-21 16:13 | 55.79410 | 2.11318 | 33493 ft | 428 kts | 81° |
| 2026-04-21 16:13 | 55.80377 | 2.21758 | 33482 ft | 428 kts | 81° |
| 2026-04-21 16:14 | 55.81335 | 2.32206 | 33492 ft | 428 kts | 82° |
| 2026-04-21 16:14 | 55.82125 | 2.40895 | 33480 ft | 428 kts | 82° |
| 2026-04-21 16:15 | 55.83068 | 2.51359 | 33481 ft | 428 kts | 82° |
| 2026-04-21 16:15 | 55.84152 | 2.63523 | 33480 ft | 428 kts | 82° |
| 2026-04-21 16:16 | 55.84927 | 2.72294 | 33483 ft | 428 kts | 82° |
| 2026-04-21 16:16 | 55.85842 | 2.82762 | 33493 ft | 428 kts | 82° |
| 2026-04-21 16:17 | 55.86748 | 2.93229 | 33474 ft | 428 kts | 82° |
| 2026-04-21 16:17 | 55.87645 | 3.03699 | 33484 ft | 427 kts | 82° |
| 2026-04-21 16:18 | 55.88526 | 3.14092 | 33469 ft | 427 kts | 82° |
| 2026-04-21 16:18 | 55.89403 | 3.24552 | 33465 ft | 427 kts | 83° |
| 2026-04-21 16:19 | 55.89919 | 3.30754 | 33471 ft | 426 kts | 83° |
| 2026-04-21 16:19 | 55.90783 | 3.41205 | 33458 ft | 426 kts | 83° |
| 2026-04-21 16:20 | 55.91584 | 3.51653 | 33445 ft | 425 kts | 87° |
| 2026-04-21 16:20 | 55.91862 | 3.62155 | 33468 ft | 424 kts | 89° |
| 2026-04-21 16:21 | 55.92018 | 3.72655 | 33463 ft | 423 kts | 90° |
| 2026-04-21 16:21 | 55.92192 | 3.83146 | 33457 ft | 423 kts | 89° |
| 2026-04-21 16:22 | 55.92382 | 3.93627 | 33460 ft | 423 kts | 89° |
| 2026-04-21 16:22 | 55.92572 | 4.04105 | 33462 ft | 423 kts | 89° |
| 2026-04-21 16:23 | 55.92754 | 4.14582 | 33468 ft | 422 kts | 90° |
| 2026-04-21 16:23 | 55.92927 | 4.25040 | 33458 ft | 422 kts | 90° |
| 2026-04-21 16:24 | 55.93090 | 4.35498 | 33456 ft | 422 kts | 90° |
| 2026-04-21 16:24 | 55.93244 | 4.45945 | 33455 ft | 421 kts | 90° |
| 2026-04-21 16:25 | 55.93389 | 4.56381 | 33468 ft | 421 kts | 90° |
| 2026-04-21 16:25 | 55.93525 | 4.66806 | 33456 ft | 420 kts | 90° |
| 2026-04-21 16:26 | 55.93652 | 4.77216 | 33453 ft | 420 kts | 90° |
| 2026-04-21 16:26 | 55.93772 | 4.87611 | 33453 ft | 419 kts | 90° |
| 2026-04-21 16:27 | 55.93441 | 4.97926 | 33471 ft | 415 kts | 105° |
| 2026-04-21 16:27 | 55.91231 | 5.07352 | 33450 ft | 413 kts | 123° |
| 2026-04-21 16:28 | 55.87976 | 5.15795 | 33447 ft | 413 kts | 124° |
| 2026-04-21 16:28 | 55.84710 | 5.24213 | 33444 ft | 413 kts | 124° |
| 2026-04-21 16:29 | 55.81482 | 5.32652 | 33447 ft | 414 kts | 123° |
| 2026-04-21 16:29 | 55.78244 | 5.41118 | 33442 ft | 414 kts | 123° |
| 2026-04-21 16:30 | 55.75365 | 5.49964 | 33444 ft | 414 kts | 118° |
| 2026-04-21 16:30 | 55.72660 | 5.59005 | 33438 ft | 415 kts | 117° |
| 2026-04-21 16:31 | 55.69944 | 5.68037 | 33435 ft | 415 kts | 118° |
| 2026-04-21 16:31 | 55.67205 | 5.77056 | 33431 ft | 416 kts | 118° |
| 2026-04-21 16:32 | 55.64449 | 5.86067 | 33430 ft | 416 kts | 118° |
| 2026-04-21 16:32 | 55.61705 | 5.95002 | 33425 ft | 416 kts | 118° |
| 2026-04-21 16:33 | 55.58939 | 6.03975 | 33424 ft | 416 kts | 118° |
| 2026-04-21 16:33 | 55.56166 | 6.12935 | 33423 ft | 415 kts | 118° |
| 2026-04-21 16:34 | 55.53389 | 6.21873 | 33424 ft | 415 kts | 118° |
| 2026-04-21 16:34 | 55.50609 | 6.30790 | 33419 ft | 414 kts | 118° |
| 2026-04-21 16:35 | 55.47826 | 6.39684 | 33419 ft | 414 kts | 118° |
| 2026-04-21 16:35 | 55.45040 | 6.48554 | 33416 ft | 414 kts | 118° |
| 2026-04-21 16:36 | 55.42247 | 6.57412 | 33411 ft | 413 kts | 118° |
| 2026-04-21 16:36 | 55.39451 | 6.66249 | 33412 ft | 413 kts | 118° |
| 2026-04-21 16:37 | 55.36648 | 6.75076 | 33413 ft | 413 kts | 118° |
| 2026-04-21 16:37 | 55.33838 | 6.83890 | 33410 ft | 414 kts | 118° |
| 2026-04-21 16:38 | 55.31020 | 6.92699 | 33408 ft | 414 kts | 118° |
| 2026-04-21 16:38 | 55.28192 | 7.01503 | 33402 ft | 414 kts | 118° |
| 2026-04-21 16:39 | 55.25358 | 7.10298 | 33406 ft | 414 kts | 118° |
| 2026-04-21 16:39 | 55.22513 | 7.19094 | 33402 ft | 415 kts | 118° |
| 2026-04-21 16:40 | 55.19660 | 7.27882 | 33398 ft | 415 kts | 118° |
| 2026-04-21 16:40 | 55.16797 | 7.36666 | 33399 ft | 416 kts | 118° |
| 2026-04-21 16:41 | 55.13924 | 7.45453 | 33395 ft | 416 kts | 118° |
| 2026-04-21 16:41 | 55.11044 | 7.54228 | 33392 ft | 417 kts | 118° |
| 2026-04-21 16:42 | 55.08175 | 7.62940 | 33394 ft | 417 kts | 118° |
| 2026-04-21 16:42 | 55.05276 | 7.71712 | 33395 ft | 417 kts | 118° |
| 2026-04-21 16:43 | 55.02374 | 7.80467 | 33394 ft | 417 kts | 118° |
| 2026-04-21 16:43 | 54.99283 | 7.89021 | 33377 ft | 419 kts | 128° |
| 2026-04-21 16:44 | 54.95296 | 7.96452 | 33375 ft | 420 kts | 131° |
| 2026-04-21 16:44 | 54.91237 | 8.03769 | 33376 ft | 420 kts | 131° |
| 2026-04-21 16:45 | 54.87190 | 8.11099 | 33377 ft | 420 kts | 131° |
| 2026-04-21 16:45 | 54.83150 | 8.18442 | 33377 ft | 421 kts | 131° |
| 2026-04-21 16:46 | 54.79109 | 8.25782 | 33380 ft | 421 kts | 131° |
| 2026-04-21 16:46 | 54.75065 | 8.33111 | 33377 ft | 421 kts | 131° |
| 2026-04-21 16:47 | 54.71011 | 8.40433 | 33378 ft | 421 kts | 131° |
| 2026-04-21 16:47 | 54.66951 | 8.47744 | 33370 ft | 422 kts | 131° |
| 2026-04-21 16:48 | 54.62886 | 8.55041 | 33374 ft | 422 kts | 131° |
| 2026-04-21 16:48 | 54.58811 | 8.62333 | 33369 ft | 422 kts | 131° |
| 2026-04-21 16:49 | 54.54729 | 8.69615 | 33369 ft | 422 kts | 131° |
| 2026-04-21 16:49 | 54.50639 | 8.76889 | 33350 ft | 423 kts | 131° |
| 2026-04-21 16:50 | 54.46544 | 8.84149 | 33367 ft | 423 kts | 131° |
| 2026-04-21 16:50 | 54.42444 | 8.91397 | 33359 ft | 423 kts | 131° |
| 2026-04-21 16:51 | 54.38332 | 8.98642 | 33370 ft | 423 kts | 131° |
| 2026-04-21 16:51 | 54.34215 | 9.05875 | 33360 ft | 424 kts | 132° |
| 2026-04-21 16:52 | 54.30119 | 9.13049 | 33366 ft | 424 kts | 132° |
| 2026-04-21 16:52 | 54.26659 | 9.19093 | 33368 ft | 425 kts | 132° |
| 2026-04-21 16:53 | 54.21846 | 9.27472 | 33379 ft | 425 kts | 132° |
| 2026-04-21 16:53 | 54.17698 | 9.34673 | 33373 ft | 425 kts | 132° |
| 2026-04-21 16:54 | 54.13541 | 9.41865 | 33371 ft | 426 kts | 132° |
| 2026-04-21 16:54 | 54.09378 | 9.49047 | 33363 ft | 426 kts | 132° |
| 2026-04-21 16:55 | 54.05204 | 9.56227 | 33365 ft | 427 kts | 132° |
| 2026-04-21 16:55 | 54.01022 | 9.63396 | 33354 ft | 427 kts | 132° |